createdAt,value
2022-09-03T00:01:42.658Z,19.55
2022-09-03T00:04:20.937Z,19.57
2022-09-03T00:07:03.272Z,19.65
2022-09-03T00:09:37.639Z,19.44
2022-09-03T00:12:15.450Z,19.55
2022-09-03T00:14:59.846Z,19.52
2022-09-03T00:17:38.569Z,19.42
2022-09-03T00:20:13.604Z,19.25
2022-09-03T00:22:46.266Z,19.43
2022-09-03T00:25:20.574Z,19.26
2022-09-03T00:27:58.394Z,19.39
2022-09-03T00:30:27.930Z,19.17
2022-09-03T00:33:05.626Z,19.25
2022-09-03T00:35:38.578Z,19.30
2022-09-03T00:38:07.747Z,19.31
2022-09-03T00:41:02.633Z,19.10
2022-09-03T00:43:48.107Z,19.09
2022-09-03T00:46:24.996Z,19.01
2022-09-03T00:49:21.021Z,19.03
2022-09-03T00:52:00.835Z,18.96
2022-09-03T00:54:41.863Z,18.78
2022-09-03T00:57:35.977Z,18.78
2022-09-03T01:00:08.912Z,18.82
2022-09-03T01:02:57.106Z,18.84
2022-09-03T01:05:44.405Z,18.58
2022-09-03T01:08:49.136Z,18.67
2022-09-03T01:11:26.799Z,18.74
2022-09-03T01:14:06.481Z,18.67
2022-09-03T01:16:41.597Z,18.51
2022-09-03T01:19:35.608Z,18.76
2022-09-03T01:22:28.011Z,18.67
2022-09-03T01:25:17.637Z,18.41
2022-09-03T01:28:20.693Z,18.60
2022-09-03T01:30:57.471Z,18.59
2022-09-03T01:33:34.999Z,18.43
2022-09-03T01:36:13.905Z,18.49
2022-09-03T01:38:51.435Z,18.50
2022-09-03T01:41:53.745Z,18.40
2022-09-03T01:44:39.317Z,18.40
2022-09-03T01:47:20.262Z,18.42
2022-09-03T01:49:59.468Z,18.53
2022-09-03T01:52:42.086Z,18.38
2022-09-03T01:55:29.746Z,18.28
2022-09-03T01:58:03.646Z,18.08
2022-09-03T02:00:37.850Z,18.17
2022-09-03T02:03:11.026Z,18.41
2022-09-03T02:05:39.447Z,18.38
2022-09-03T02:08:11.616Z,18.28
2022-09-03T02:10:44.658Z,18.20
2022-09-03T02:13:18.251Z,17.93
2022-09-03T02:15:52.235Z,18.16
2022-09-03T02:18:25.460Z,18.03
2022-09-03T02:20:55.773Z,18.13
2022-09-03T02:23:28.301Z,17.97
2022-09-03T02:25:59.669Z,18.05
2022-09-03T02:28:29.275Z,17.75
2022-09-03T02:30:59.332Z,17.88
2022-09-03T02:33:28.676Z,18.19
2022-09-03T02:35:57.190Z,18.13
2022-09-03T02:38:28.324Z,17.96
2022-09-03T02:40:56.758Z,18.03
2022-09-03T02:43:31.872Z,17.94
2022-09-03T02:46:06.146Z,17.89
2022-09-03T02:48:34.945Z,17.88
2022-09-03T02:51:14.267Z,17.79
2022-09-03T02:53:45.163Z,17.90
2022-09-03T02:56:14.143Z,17.68
2022-09-03T02:58:42.450Z,17.77
2022-09-03T03:01:14.591Z,17.80
2022-09-03T03:03:52.109Z,17.69
2022-09-03T03:06:21.077Z,17.51
2022-09-03T03:08:50.885Z,17.76
2022-09-03T03:11:19.931Z,17.54
2022-09-03T03:13:48.301Z,17.73
2022-09-03T03:16:18.754Z,17.83
2022-09-03T03:18:47.283Z,17.59
2022-09-03T03:21:18.973Z,17.65
2022-09-03T03:23:47.327Z,17.55
2022-09-03T03:26:19.484Z,17.67
2022-09-03T03:28:49.003Z,17.62
2022-09-03T03:31:21.313Z,17.42
2022-09-03T03:33:54.138Z,17.63
2022-09-03T03:36:24.937Z,17.40
2022-09-03T03:38:56.507Z,17.54
2022-09-03T03:41:27.117Z,17.35
2022-09-03T03:43:57.212Z,17.43
2022-09-03T03:46:30.759Z,17.60
2022-09-03T03:48:59.690Z,17.66
2022-09-03T03:51:28.048Z,17.58
2022-09-03T03:54:00.186Z,17.50
2022-09-03T03:56:31.529Z,17.53
2022-09-03T03:59:01.400Z,17.58
2022-09-03T04:01:31.486Z,17.59
2022-09-03T04:04:01.133Z,17.52
2022-09-03T04:06:30.268Z,17.55
2022-09-03T04:08:58.753Z,17.49
2022-09-03T04:11:27.576Z,17.46
2022-09-03T04:13:55.892Z,17.41
2022-09-03T04:16:26.564Z,17.29
2022-09-03T04:18:58.042Z,17.21
2022-09-03T04:21:29.251Z,17.33
2022-09-03T04:23:59.001Z,17.40
2022-09-03T04:26:31.415Z,17.05
2022-09-03T04:29:01.897Z,17.33
2022-09-03T04:31:30.462Z,17.38
2022-09-03T04:34:01.907Z,17.45
2022-09-03T04:36:31.985Z,17.38
2022-09-03T04:39:02.810Z,17.30
2022-09-03T04:41:32.631Z,17.22
2022-09-03T04:44:01.775Z,17.39
2022-09-03T04:46:32.959Z,17.37
2022-09-03T04:49:03.351Z,17.17
2022-09-03T04:51:32.541Z,17.15
2022-09-03T04:54:03.263Z,16.88
2022-09-03T04:56:33.603Z,17.20
2022-09-03T04:59:04.007Z,17.20
2022-09-03T05:01:35.338Z,17.33
2022-09-03T05:04:06.709Z,17.10
2022-09-03T05:06:37.285Z,16.79
2022-09-03T05:09:06.700Z,17.13
2022-09-03T05:11:35.718Z,16.96
2022-09-03T05:14:05.784Z,16.96
2022-09-03T05:16:34.320Z,16.98
2022-09-03T05:19:06.051Z,17.07
2022-09-03T05:21:36.033Z,16.88
2022-09-03T05:24:05.750Z,16.90
2022-09-03T05:26:38.390Z,17.03
2022-09-03T05:29:09.901Z,17.00
2022-09-03T05:31:39.960Z,16.98
2022-09-03T05:34:18.525Z,17.20
2022-09-03T05:36:49.864Z,17.18
2022-09-03T05:39:20.946Z,17.07
2022-09-03T05:41:52.352Z,16.95
2022-09-03T05:44:23.550Z,17.21
2022-09-03T05:46:53.953Z,17.15
2022-09-03T05:49:27.330Z,17.14
2022-09-03T05:52:07.482Z,17.06
2022-09-03T05:54:48.008Z,17.46
2022-09-03T05:57:22.671Z,17.39
2022-09-03T05:59:52.842Z,17.63
2022-09-03T06:02:27.658Z,17.73
2022-09-03T06:05:00.318Z,17.92
2022-09-03T06:07:29.627Z,17.72
2022-09-03T06:09:58.571Z,17.75
2022-09-03T06:12:29.376Z,17.77
2022-09-03T06:14:58.818Z,17.94
2022-09-03T06:17:47.294Z,18.14
2022-09-03T06:20:36.819Z,18.42
2022-09-03T06:23:11.628Z,18.63
2022-09-03T06:25:44.029Z,18.90
2022-09-03T06:28:16.393Z,19.02
2022-09-03T06:30:45.109Z,18.88
2022-09-03T06:33:35.376Z,19.32
2022-09-03T06:36:09.132Z,19.52
2022-09-03T06:38:41.109Z,19.71
2022-09-03T06:41:28.026Z,19.75
2022-09-03T06:44:03.608Z,19.95
2022-09-03T06:46:34.993Z,20.23
2022-09-03T06:49:20.377Z,20.35
2022-09-03T06:51:50.556Z,20.02
2022-09-03T06:54:23.172Z,20.36
2022-09-03T06:57:14.139Z,20.59
2022-09-03T06:59:43.911Z,20.61
2022-09-03T07:02:12.878Z,20.85
2022-09-03T07:04:42.051Z,20.60
2022-09-03T07:07:21.627Z,20.77
2022-09-03T07:09:50.274Z,21.18
2022-09-03T07:12:19.404Z,21.21
2022-09-03T07:14:48.769Z,20.71
2022-09-03T07:17:22.727Z,21.18
2022-09-03T07:19:51.226Z,21.19
2022-09-03T07:22:21.376Z,21.37
2022-09-03T07:24:54.906Z,21.22
2022-09-03T07:27:30.831Z,20.89
2022-09-03T07:29:59.548Z,21.11
2022-09-03T07:32:28.095Z,20.87
2022-09-03T07:34:58.592Z,20.90
2022-09-03T07:37:31.797Z,21.12
2022-09-03T07:40:02.060Z,21.38
2022-09-03T07:42:31.142Z,21.20
2022-09-03T07:44:59.827Z,21.43
2022-09-03T07:47:29.561Z,21.34
2022-09-03T07:49:58.906Z,21.26
2022-09-03T07:52:29.349Z,21.29
2022-09-03T07:54:59.601Z,21.51
2022-09-03T07:57:28.187Z,21.50
2022-09-03T07:59:57.136Z,21.37
2022-09-03T08:02:34.765Z,21.66
2022-09-03T08:05:03.446Z,21.79
2022-09-03T08:07:33.536Z,21.69
2022-09-03T08:10:02.362Z,21.93
2022-09-03T08:12:32.802Z,21.74
2022-09-03T08:15:01.428Z,21.78
2022-09-03T08:17:30.239Z,22.12
2022-09-03T08:19:59.278Z,22.04
2022-09-03T08:22:28.252Z,21.96
2022-09-03T08:24:58.592Z,22.04
2022-09-03T08:27:27.804Z,22.87
2022-09-03T08:29:56.367Z,22.62
2022-09-03T08:32:27.981Z,22.84
2022-09-03T08:35:10.078Z,22.86
2022-09-03T08:37:41.429Z,23.13
2022-09-03T08:40:13.226Z,23.06
2022-09-03T08:43:08.973Z,23.46
2022-09-03T08:45:39.493Z,23.68
2022-09-03T08:48:13.867Z,23.54
2022-09-03T08:50:51.621Z,23.85
2022-09-03T08:53:28.345Z,23.99
2022-09-03T08:56:06.083Z,23.65
2022-09-03T08:58:44.095Z,23.95
2022-09-03T09:01:24.638Z,24.03
2022-09-03T09:04:06.914Z,24.39
2022-09-03T09:06:49.879Z,24.36
2022-09-03T09:09:32.403Z,24.55
2022-09-03T09:12:18.280Z,24.70
2022-09-03T09:15:00.337Z,24.94
2022-09-03T09:18:00.400Z,24.65
2022-09-03T09:20:42.840Z,24.87
2022-09-03T09:23:16.891Z,25.18
2022-09-03T09:25:54.343Z,25.62
2022-09-03T09:28:31.318Z,25.71
2022-09-03T09:31:03.191Z,25.16
2022-09-03T09:33:35.403Z,25.36
2022-09-03T09:36:08.435Z,25.29
2022-09-03T09:38:40.047Z,25.93
2022-09-03T09:41:12.866Z,26.06
2022-09-03T09:43:43.377Z,26.01
2022-09-03T09:46:15.965Z,25.34
2022-09-03T09:48:52.220Z,25.91
2022-09-03T09:51:23.465Z,26.23
2022-09-03T09:54:04.677Z,26.48
2022-09-03T09:56:33.260Z,26.32
2022-09-03T09:59:08.332Z,26.30
2022-09-03T10:01:48.587Z,26.81
2022-09-03T10:04:32.893Z,26.89
2022-09-03T10:07:19.805Z,26.46
2022-09-03T10:10:00.132Z,26.87
2022-09-03T10:12:35.719Z,26.96
2022-09-03T10:15:24.660Z,26.62
2022-09-03T10:18:03.138Z,27.46
2022-09-03T10:20:44.357Z,27.34
2022-09-03T10:23:22.932Z,27.25
2022-09-03T10:26:07.398Z,27.59
2022-09-03T10:28:39.910Z,27.22
2022-09-03T10:31:43.411Z,27.83
2022-09-03T10:34:18.666Z,28.09
2022-09-03T10:37:01.008Z,27.73
2022-09-03T10:39:50.191Z,28.36
2022-09-03T10:42:42.471Z,27.76
2022-09-03T10:45:33.618Z,28.20
2022-09-03T10:48:27.540Z,27.84
2022-09-03T10:51:02.444Z,28.67
2022-09-03T10:54:01.577Z,28.23
2022-09-03T10:56:38.323Z,28.34
2022-09-03T10:59:29.438Z,28.65
2022-09-03T11:02:24.721Z,28.54
2022-09-03T11:05:02.891Z,28.62
2022-09-03T11:07:41.192Z,28.58
2022-09-03T11:10:19.559Z,28.59
2022-09-03T11:12:57.430Z,29.07
2022-09-03T11:15:32.638Z,28.79
2022-09-03T11:18:15.180Z,28.80
2022-09-03T11:20:46.307Z,29.12
2022-09-03T11:23:15.115Z,29.01
2022-09-03T11:25:58.382Z,29.54
2022-09-03T11:28:45.420Z,29.66
2022-09-03T11:31:34.230Z,30.08
2022-09-03T11:34:09.209Z,29.81
2022-09-03T11:36:42.710Z,29.85
2022-09-03T11:39:36.297Z,29.72
2022-09-03T11:42:11.305Z,30.45
2022-09-03T11:44:51.312Z,29.98
2022-09-03T11:47:26.016Z,30.32
2022-09-03T11:50:06.009Z,30.57
2022-09-03T11:52:40.396Z,30.16
2022-09-03T11:55:09.777Z,30.38
2022-09-03T11:57:43.704Z,30.25
2022-09-03T12:00:18.014Z,30.05
2022-09-03T12:02:49.918Z,30.89
2022-09-03T12:05:35.867Z,31.20
2022-09-03T12:08:37.240Z,30.35
2022-09-03T12:11:27.275Z,31.15
2022-09-03T12:14:13.881Z,30.99
2022-09-03T12:17:13.066Z,31.14
2022-09-03T12:19:47.350Z,31.66
2022-09-03T12:22:16.194Z,31.84
2022-09-03T12:24:46.242Z,31.62
2022-09-03T12:27:25.103Z,31.89
2022-09-03T12:30:00.664Z,31.92
2022-09-03T12:32:33.288Z,31.92
2022-09-03T12:35:14.393Z,32.00
2022-09-03T12:41:23.538Z,31.81
2022-09-03T12:43:39.016Z,32.18
2022-09-03T12:46:17.639Z,31.91
2022-09-03T12:51:55.785Z,31.89
2022-09-03T12:54:50.651Z,32.29
2022-09-03T12:57:28.364Z,31.87
2022-09-03T13:00:05.527Z,31.55
2022-09-03T13:02:51.010Z,32.58
2022-09-03T13:05:33.172Z,32.75
2022-09-03T13:08:08.348Z,32.76
2022-09-03T13:10:42.056Z,32.98
2022-09-03T13:13:27.824Z,33.04
2022-09-03T13:16:34.311Z,33.25
2022-09-03T13:19:11.380Z,32.84
2022-09-03T13:21:53.040Z,32.98
2022-09-03T13:25:04.736Z,33.69
2022-09-03T13:27:46.150Z,33.35
2022-09-03T13:30:23.425Z,32.99
2022-09-03T13:32:59.506Z,33.95
2022-09-03T13:35:43.205Z,33.92
2022-09-03T13:38:27.157Z,34.64
2022-09-03T13:41:04.969Z,34.03
2022-09-03T13:43:43.120Z,34.79
2022-09-03T13:46:19.622Z,34.65
2022-09-03T13:49:53.607Z,34.78
2022-09-03T13:52:33.286Z,35.31
2022-09-03T13:55:11.741Z,34.06
2022-09-03T13:57:50.725Z,34.65
2022-09-03T14:00:31.438Z,35.49
2022-09-03T14:03:16.499Z,35.25
2022-09-03T14:06:08.452Z,35.49
2022-09-03T14:09:05.877Z,36.39
2022-09-03T14:11:51.249Z,36.65
2022-09-03T14:14:37.459Z,37.23
2022-09-03T14:17:16.402Z,36.40
2022-09-03T14:20:02.185Z,36.40
2022-09-03T14:22:45.352Z,36.43
2022-09-03T14:25:18.736Z,36.80
2022-09-03T14:27:47.380Z,37.74
2022-09-03T14:30:41.815Z,37.66
2022-09-03T14:33:20.894Z,37.00
2022-09-03T14:36:04.332Z,37.03
2022-09-03T14:38:58.934Z,37.84
2022-09-03T14:41:53.509Z,37.25
2022-09-03T14:44:57.641Z,37.24
2022-09-03T14:47:44.969Z,36.97
2022-09-03T14:50:35.450Z,36.75
2022-09-03T14:53:27.842Z,37.90
2022-09-03T14:56:33.602Z,37.55
2022-09-03T14:59:24.808Z,38.44
2022-09-03T15:02:16.454Z,38.69
2022-09-03T15:05:11.751Z,37.09
2022-09-03T15:07:49.920Z,38.44
2022-09-03T15:10:37.793Z,38.16
2022-09-03T15:13:17.667Z,38.56
2022-09-03T15:16:23.641Z,37.96
2022-09-03T15:19:21.893Z,38.04
2022-09-03T15:22:26.793Z,38.47
2022-09-03T15:25:12.784Z,38.86
2022-09-03T15:28:39.315Z,38.81
2022-09-03T15:31:28.188Z,38.38
2022-09-03T15:34:30.700Z,36.74
2022-09-03T15:37:13.065Z,37.88
2022-09-03T15:39:48.476Z,37.81
2022-09-03T15:42:29.271Z,38.54
2022-09-03T15:45:18.031Z,38.16
2022-09-03T15:47:58.157Z,38.11
2022-09-03T15:51:00.686Z,38.11
2022-09-03T15:53:40.864Z,37.33
2022-09-03T15:56:22.108Z,37.24
2022-09-03T15:59:01.020Z,36.96
2022-09-03T16:01:41.089Z,37.45
2022-09-03T16:04:53.624Z,36.20
2022-09-03T16:07:28.417Z,36.53
2022-09-03T16:10:24.201Z,36.09
2022-09-03T16:13:06.044Z,36.40
2022-09-03T16:15:43.246Z,36.47
2022-09-03T16:18:24.402Z,35.66
2022-09-03T16:21:00.561Z,35.62
2022-09-03T16:23:34.365Z,35.09
2022-09-03T16:26:09.754Z,34.82
2022-09-03T16:28:48.943Z,34.63
2022-09-03T16:31:41.679Z,34.33
2022-09-03T16:34:23.095Z,34.29
2022-09-03T16:37:05.865Z,33.63
2022-09-03T16:39:55.984Z,33.78
2022-09-03T16:42:33.499Z,33.16
2022-09-03T16:45:19.060Z,32.17
2022-09-03T16:48:09.904Z,32.34
2022-09-03T16:50:58.319Z,32.23
2022-09-03T16:53:41.041Z,31.76
2022-09-03T16:56:33.802Z,31.64
2022-09-03T16:59:19.121Z,30.96
2022-09-03T17:02:18.241Z,31.10
2022-09-03T17:05:13.989Z,30.68
2022-09-03T17:08:09.233Z,30.63
2022-09-03T17:10:47.089Z,30.20
2022-09-03T17:13:54.032Z,30.14
2022-09-03T17:16:41.918Z,29.70
2022-09-03T17:19:23.691Z,29.33
2022-09-03T17:22:07.582Z,29.59
2022-09-03T17:24:47.906Z,29.33
2022-09-03T17:27:48.618Z,29.18
2022-09-03T17:30:30.723Z,28.92
2022-09-03T17:33:35.894Z,28.85
2022-09-03T17:36:15.431Z,28.73
2022-09-03T17:39:30.031Z,28.69
2022-09-03T17:42:06.240Z,28.23
2022-09-03T17:44:56.022Z,28.11
2022-09-03T17:47:54.357Z,28.18
2022-09-03T17:50:27.369Z,28.04
2022-09-03T17:53:01.088Z,27.98
2022-09-03T17:55:37.010Z,27.99
2022-09-03T17:58:15.329Z,27.98
2022-09-03T18:00:55.242Z,27.88
2022-09-03T18:03:28.670Z,27.80
2022-09-03T18:06:04.224Z,27.59
2022-09-03T18:08:42.830Z,27.44
2022-09-03T18:11:15.226Z,27.45
2022-09-03T18:13:55.692Z,27.23
2022-09-03T18:16:29.565Z,27.11
2022-09-03T18:19:07.651Z,27.00
2022-09-03T18:21:57.458Z,26.83
2022-09-03T18:24:51.449Z,26.61
2022-09-03T18:27:42.303Z,26.49
2022-09-03T18:30:33.622Z,26.29
2022-09-03T18:33:21.586Z,26.12
2022-09-03T18:36:07.487Z,26.10
2022-09-03T18:38:56.652Z,25.94
2022-09-03T18:42:18.870Z,25.70
2022-09-03T18:45:22.504Z,25.65
2022-09-03T18:48:25.020Z,25.42
2022-09-03T18:51:20.985Z,25.38
2022-09-03T18:54:16.350Z,25.24
2022-09-03T18:57:09.620Z,25.13
2022-09-03T19:00:25.497Z,24.96
2022-09-03T19:03:35.170Z,24.84
2022-09-03T19:06:34.885Z,24.86
2022-09-03T19:09:30.614Z,24.61
2022-09-03T19:12:31.463Z,24.43
2022-09-03T19:15:26.123Z,24.38
2022-09-03T19:18:35.845Z,24.15
2022-09-03T19:21:35.996Z,24.08
2022-09-03T19:24:24.363Z,24.01
2022-09-03T19:27:51.824Z,23.93
2022-09-03T19:30:33.618Z,23.74
2022-09-03T19:33:32.012Z,23.71
2022-09-03T19:36:30.443Z,23.64
2022-09-03T19:39:43.382Z,23.51
2022-09-03T19:42:40.373Z,23.46
2022-09-03T19:45:39.437Z,23.36
2022-09-03T19:48:38.428Z,23.30
2022-09-03T19:51:33.259Z,23.09
2022-09-03T19:54:22.885Z,23.15
2022-09-03T19:57:10.160Z,23.27
2022-09-03T19:59:59.888Z,23.10
2022-09-03T20:02:46.397Z,23.06
2022-09-03T20:05:39.386Z,23.00
2022-09-03T20:08:26.447Z,22.95
2022-09-03T20:10:59.046Z,22.74
2022-09-03T20:13:28.615Z,22.81
2022-09-03T20:16:08.628Z,22.74
2022-09-03T20:18:49.092Z,22.76
2022-09-03T20:21:26.281Z,22.69
2022-09-03T20:24:03.053Z,22.57
2022-09-03T20:26:45.365Z,22.56
2022-09-03T20:29:36.218Z,22.39
2022-09-03T20:32:12.258Z,22.43
2022-09-03T20:34:51.754Z,22.34
2022-09-03T20:37:30.732Z,22.17
2022-09-03T20:40:27.015Z,22.11
2022-09-03T20:43:20.086Z,22.12
2022-09-03T20:46:07.139Z,22.01
2022-09-03T20:48:47.191Z,22.01
2022-09-03T20:51:22.710Z,21.84
2022-09-03T20:54:08.662Z,21.81
2022-09-03T20:57:01.392Z,21.80
2022-09-03T20:59:48.286Z,21.88
2022-09-03T21:02:31.807Z,21.76
2022-09-03T21:05:10.593Z,21.63
2022-09-03T21:07:52.531Z,21.71
2022-09-03T21:10:33.463Z,21.61
2022-09-03T21:13:13.285Z,21.53
2022-09-03T21:15:56.678Z,21.50
2022-09-03T21:18:38.291Z,21.37
2022-09-03T21:21:20.227Z,21.45
2022-09-03T21:23:58.663Z,21.41
2022-09-03T21:26:32.418Z,21.25
2022-09-03T21:29:08.739Z,21.34
2022-09-03T21:31:43.579Z,21.26
2022-09-03T21:34:21.738Z,21.18
2022-09-03T21:36:51.907Z,21.12
2022-09-03T21:39:27.292Z,21.11
2022-09-03T21:42:04.108Z,21.16
2022-09-03T21:44:49.439Z,21.24
2022-09-03T21:47:21.454Z,21.24
2022-09-03T21:50:17.980Z,21.27
2022-09-03T21:52:55.255Z,21.24
2022-09-03T21:55:33.073Z,21.20
2022-09-03T21:58:20.106Z,21.13
2022-09-03T22:00:52.789Z,21.12
2022-09-03T22:03:21.856Z,21.11
2022-09-03T22:05:58.333Z,21.08
2022-09-03T22:08:34.475Z,21.11
2022-09-03T22:11:13.617Z,21.13
2022-09-03T22:13:49.493Z,21.11
2022-09-03T22:16:28.082Z,21.05
2022-09-03T22:18:56.573Z,21.02
2022-09-03T22:21:32.842Z,20.95
2022-09-03T22:24:19.043Z,20.77
2022-09-03T22:26:56.627Z,20.92
2022-09-03T22:29:41.503Z,20.94
2022-09-03T22:32:27.386Z,20.82
2022-09-03T22:35:44.341Z,20.69
2022-09-03T22:38:38.658Z,20.64
2022-09-03T22:41:23.762Z,20.62
2022-09-03T22:44:03.422Z,20.64
2022-09-03T22:46:42.310Z,20.60
2022-09-03T22:49:28.262Z,20.60
2022-09-03T22:52:10.730Z,20.55
2022-09-03T22:54:56.307Z,20.54
2022-09-03T22:57:28.910Z,20.48
2022-09-03T23:00:03.038Z,20.45
2022-09-03T23:02:33.742Z,20.47
2022-09-03T23:05:08.669Z,20.42
2022-09-03T23:07:58.266Z,20.27
2022-09-03T23:10:33.287Z,20.40
2022-09-03T23:13:10.559Z,20.39
2022-09-03T23:15:42.044Z,20.25
2022-09-03T23:18:17.867Z,20.37
2022-09-03T23:20:57.111Z,20.34
2022-09-03T23:23:31.169Z,20.39
2022-09-03T23:26:13.649Z,20.38
2022-09-03T23:28:48.185Z,20.30
2022-09-03T23:31:22.750Z,20.30
2022-09-03T23:33:56.080Z,20.26
2022-09-03T23:37:05.801Z,20.23
2022-09-03T23:40:09.058Z,20.15
2022-09-03T23:42:57.375Z,20.14
2022-09-03T23:45:40.247Z,20.11
2022-09-03T23:48:24.051Z,20.03
2022-09-03T23:51:06.110Z,20.09
2022-09-03T23:53:49.130Z,20.10
2022-09-03T23:56:55.457Z,20.11
2022-09-03T23:59:39.981Z,20.12
